Clyde, Texas
Current Conditions -  °F | °C
As of 12:52 PM on Thursday 30 Oct 2014 (Local Time) from KABI Reporting Station
Clear Clear  
Wind Chill: 78°   Ceiling: Unl
Heat Index: 79°   Visibility: 10mi
Dew Point: 60°   Wind: 9mph
Humidity: 54%   Direction: 200°SSW
Pressure: 30.13"   Gusts: NA
Location:  32.41°N, 99.49°W
Report Text: KABI 301752Z 20008KT 10SM CLR 26/16 A3013 RMK AO2 SLP185 T02560156 10256 20139 58003
Loading
Personal Weather Stations






























Interactive Weather Map New forecast layout! Learn more

10-Day Weather Forecast

Advertisements
Track Severe Weather on mobile